Dois Vizinhos, Brazil
Current Conditions -  °F | °C
As of 8:00 PM on Thursday 18 Dec 2014 (Local Time) from SBCA Reporting Station
Scattered Clouds Scattered Clouds  
Wind Chill: 77°   Ceiling: Unl
Heat Index: 79°   Visibility: 6mi
Dew Point: 61°   Wind: 12mph
Humidity: 57%   Direction: 300°WNW
Pressure: 29.85"   Gusts: NA
Location:  25.73°S, 53.06°W
Report Text: SBCA 182200Z 30010KT 9999 SCT040 25/16 Q1011
Loading
Personal Weather Stations






























Interactive Weather Map New forecast layout! Learn more

10-Day Weather Forecast

Advertisements
Track Severe Weather on mobile